sensor_id;sensor_type;location;lat;lon;timestamp;P1;durP1;ratioP1;P2;durP2;ratioP2
30462;SDS011;17256;43.618;25.336;2022-12-07T04:56:12;30.52;;;23.17;;
30462;SDS011;17256;43.618;25.336;2022-12-07T04:58:54;26.47;;;18.27;;
30462;SDS011;17256;43.618;25.336;2022-12-07T05:03:08;21.37;;;15.10;;
30462;SDS011;17256;43.618;25.336;2022-12-07T05:14:38;23.50;;;16.10;;
30462;SDS011;17256;43.618;25.336;2022-12-07T05:18:39;29.53;;;20.13;;
30462;SDS011;17256;43.618;25.336;2022-12-07T05:22:46;32.20;;;21.07;;
30462;SDS011;17256;43.618;25.336;2022-12-07T05:26:47;34.17;;;20.10;;
30462;SDS011;17256;43.618;25.336;2022-12-07T05:29:52;34.90;;;20.00;;
30462;SDS011;17256;43.618;25.336;2022-12-07T05:33:26;38.53;;;21.07;;
30462;SDS011;17256;43.618;25.336;2022-12-07T05:41:17;60.20;;;34.03;;
30462;SDS011;17256;43.618;25.336;2022-12-07T05:44:02;44.47;;;29.00;;
30462;SDS011;17256;43.618;25.336;2022-12-07T05:46:28;37.80;;;22.83;;
30462;SDS011;17256;43.618;25.336;2022-12-07T05:48:54;43.10;;;25.53;;
30462;SDS011;17256;43.618;25.336;2022-12-07T05:51:20;40.07;;;27.33;;
30462;SDS011;17256;43.618;25.336;2022-12-07T05:53:46;44.93;;;30.33;;
30462;SDS011;17256;43.618;25.336;2022-12-07T05:56:20;37.67;;;25.93;;
30462;SDS011;17256;43.618;25.336;2022-12-07T05:58:46;47.30;;;29.23;;
30462;SDS011;17256;43.618;25.336;2022-12-07T06:01:42;32.67;;;22.93;;
30462;SDS011;17256;43.618;25.336;2022-12-07T06:07:04;39.33;;;26.30;;
30462;SDS011;17256;43.618;25.336;2022-12-07T06:09:30;30.47;;;21.90;;
30462;SDS011;17256;43.618;25.336;2022-12-07T06:11:56;40.03;;;27.90;;
30462;SDS011;17256;43.618;25.336;2022-12-07T06:14:41;104.23;;;47.20;;
30462;SDS011;17256;43.618;25.336;2022-12-07T06:25:45;25.00;;;17.83;;
30462;SDS011;17256;43.618;25.336;2022-12-07T06:30:56;29.97;;;19.57;;
30462;SDS011;17256;43.618;25.336;2022-12-07T06:33:30;31.23;;;20.10;;
30462;SDS011;17256;43.618;25.336;2022-12-07T06:35:56;56.53;;;31.27;;
30462;SDS011;17256;43.618;25.336;2022-12-07T06:38:21;69.67;;;40.13;;
30462;SDS011;17256;43.618;25.336;2022-12-07T06:44:00;58.63;;;38.73;;
30462;SDS011;17256;43.618;25.336;2022-12-07T06:47:15;35.03;;;23.80;;
30462;SDS011;17256;43.618;25.336;2022-12-07T06:50:29;33.57;;;24.50;;
30462;SDS011;17256;43.618;25.336;2022-12-07T06:53:37;41.30;;;28.40;;
30462;SDS011;17256;43.618;25.336;2022-12-07T06:57:18;40.27;;;25.80;;
30462;SDS011;17256;43.618;25.336;2022-12-07T07:11:57;35.33;;;21.83;;
30462;SDS011;17256;43.618;25.336;2022-12-07T07:14:38;31.80;;;21.53;;
30462;SDS011;17256;43.618;25.336;2022-12-07T07:26:33;34.23;;;27.07;;
30462;SDS011;17256;43.618;25.336;2022-12-07T07:29:08;23.30;;;16.33;;
30462;SDS011;17256;43.618;25.336;2022-12-07T07:31:52;21.43;;;15.83;;
30462;SDS011;17256;43.618;25.336;2022-12-07T07:34:47;24.57;;;16.80;;
30462;SDS011;17256;43.618;25.336;2022-12-07T07:38:04;21.57;;;14.43;;
30462;SDS011;17256;43.618;25.336;2022-12-07T07:41:32;27.07;;;20.53;;
30462;SDS011;17256;43.618;25.336;2022-12-07T07:50:03;22.63;;;16.17;;
30462;SDS011;17256;43.618;25.336;2022-12-07T08:01:12;35.07;;;23.67;;
30462;SDS011;17256;43.618;25.336;2022-12-07T08:05:29;41.97;;;30.50;;
30462;SDS011;17256;43.618;25.336;2022-12-07T08:09:06;36.33;;;23.57;;
30462;SDS011;17256;43.618;25.336;2022-12-07T08:12:47;36.80;;;23.27;;
30462;SDS011;17256;43.618;25.336;2022-12-07T08:19:35;34.97;;;21.10;;
30462;SDS011;17256;43.618;25.336;2022-12-07T08:26:58;37.47;;;25.67;;
30462;SDS011;17256;43.618;25.336;2022-12-07T08:31:21;34.60;;;21.67;;
30462;SDS011;17256;43.618;25.336;2022-12-07T08:35:17;39.23;;;28.60;;
30462;SDS011;17256;43.618;25.336;2022-12-07T08:38:37;30.53;;;23.47;;
30462;SDS011;17256;43.618;25.336;2022-12-07T08:49:24;27.40;;;20.17;;
30462;SDS011;17256;43.618;25.336;2022-12-07T08:53:26;33.03;;;25.13;;
30462;SDS011;17256;43.618;25.336;2022-12-07T08:56:26;26.87;;;17.67;;
30462;SDS011;17256;43.618;25.336;2022-12-07T08:58:58;28.20;;;18.23;;
30462;SDS011;17256;43.618;25.336;2022-12-07T09:01:44;24.20;;;18.93;;
30462;SDS011;17256;43.618;25.336;2022-12-07T09:05:21;21.63;;;16.57;;
30462;SDS011;17256;43.618;25.336;2022-12-07T09:09:16;19.67;;;16.10;;
30462;SDS011;17256;43.618;25.336;2022-12-07T09:13:32;37.43;;;23.67;;
30462;SDS011;17256;43.618;25.336;2022-12-07T09:21:23;30.07;;;22.93;;
30462;SDS011;17256;43.618;25.336;2022-12-07T09:29:17;30.03;;;21.33;;
30462;SDS011;17256;43.618;25.336;2022-12-07T09:32:39;32.83;;;21.60;;
30462;SDS011;17256;43.618;25.336;2022-12-07T09:35:05;32.17;;;21.67;;
30462;SDS011;17256;43.618;25.336;2022-12-07T09:37:31;34.87;;;26.33;;
30462;SDS011;17256;43.618;25.336;2022-12-07T09:40:00;32.00;;;21.73;;
30462;SDS011;17256;43.618;25.336;2022-12-07T09:42:44;31.23;;;22.33;;
30462;SDS011;17256;43.618;25.336;2022-12-07T09:46:40;54.90;;;36.33;;
30462;SDS011;17256;43.618;25.336;2022-12-07T09:53:13;55.87;;;33.80;;
30462;SDS011;17256;43.618;25.336;2022-12-07T09:55:42;51.00;;;33.33;;
30462;SDS011;17256;43.618;25.336;2022-12-07T09:58:22;33.27;;;20.80;;
30462;SDS011;17256;43.618;25.336;2022-12-07T10:00:51;39.73;;;25.77;;
30462;SDS011;17256;43.618;25.336;2022-12-07T10:03:22;32.37;;;21.07;;
30462;SDS011;17256;43.618;25.336;2022-12-07T10:05:51;26.53;;;20.07;;
30462;SDS011;17256;43.618;25.336;2022-12-07T10:08:46;30.40;;;21.43;;
30462;SDS011;17256;43.618;25.336;2022-12-07T10:15:02;22.10;;;17.13;;
30462;SDS011;17256;43.618;25.336;2022-12-07T10:17:35;26.30;;;19.70;;
30462;SDS011;17256;43.618;25.336;2022-12-07T10:23:05;27.77;;;18.37;;
30462;SDS011;17256;43.618;25.336;2022-12-07T10:29:36;22.43;;;16.40;;
30462;SDS011;17256;43.618;25.336;2022-12-07T10:37:27;17.17;;;13.37;;
30462;SDS011;17256;43.618;25.336;2022-12-07T10:43:53;19.50;;;14.03;;
30462;SDS011;17256;43.618;25.336;2022-12-07T10:46:34;19.07;;;14.60;;
30462;SDS011;17256;43.618;25.336;2022-12-07T10:49:46;19.63;;;13.30;;
30462;SDS011;17256;43.618;25.336;2022-12-07T11:07:50;21.00;;;15.07;;
30462;SDS011;17256;43.618;25.336;2022-12-07T11:39:04;19.47;;;15.03;;
30462;SDS011;17256;43.618;25.336;2022-12-07T11:50:45;18.87;;;13.87;;
30462;SDS011;17256;43.618;25.336;2022-12-07T12:06:23;29.97;;;20.97;;
30462;SDS011;17256;43.618;25.336;2022-12-07T13:02:20;20.80;;;15.97;;
30462;SDS011;17256;43.618;25.336;2022-12-07T13:06:19;21.43;;;18.00;;
30462;SDS011;17256;43.618;25.336;2022-12-07T13:13:32;21.87;;;16.07;;
30462;SDS011;17256;43.618;25.336;2022-12-07T13:16:36;26.83;;;22.57;;
30462;SDS011;17256;43.618;25.336;2022-12-07T13:28:07;26.13;;;17.63;;
30462;SDS011;17256;43.618;25.336;2022-12-07T13:32:01;24.03;;;17.47;;
30462;SDS011;17256;43.618;25.336;2022-12-07T13:35:45;43.60;;;28.90;;
30462;SDS011;17256;43.618;25.336;2022-12-07T13:39:16;31.63;;;19.77;;
30462;SDS011;17256;43.618;25.336;2022-12-07T13:41:44;98.97;;;67.87;;
30462;SDS011;17256;43.618;25.336;2022-12-07T13:44:44;221.13;;;199.70;;
30462;SDS011;17256;43.618;25.336;2022-12-07T13:47:19;58.37;;;45.33;;
30462;SDS011;17256;43.618;25.336;2022-12-07T13:53:51;44.17;;;39.07;;
30462;SDS011;17256;43.618;25.336;2022-12-07T13:58:10;55.90;;;48.97;;
30462;SDS011;17256;43.618;25.336;2022-12-07T14:02:01;83.37;;;71.47;;
30462;SDS011;17256;43.618;25.336;2022-12-07T14:05:23;35.47;;;26.50;;
30462;SDS011;17256;43.618;25.336;2022-12-07T14:21:29;244.27;;;166.30;;
30462;SDS011;17256;43.618;25.336;2022-12-07T14:24:10;167.50;;;123.60;;
30462;SDS011;17256;43.618;25.336;2022-12-07T14:29:37;73.93;;;50.83;;
30462;SDS011;17256;43.618;25.336;2022-12-07T14:34:59;205.77;;;131.57;;
30462;SDS011;17256;43.618;25.336;2022-12-07T14:40:49;146.60;;;111.70;;
30462;SDS011;17256;43.618;25.336;2022-12-07T14:43:17;78.00;;;56.97;;
30462;SDS011;17256;43.618;25.336;2022-12-07T14:46:50;49.90;;;41.47;;
30462;SDS011;17256;43.618;25.336;2022-12-07T14:49:57;42.80;;;36.10;;
30462;SDS011;17256;43.618;25.336;2022-12-07T14:53:24;50.90;;;33.83;;
30462;SDS011;17256;43.618;25.336;2022-12-07T14:56:35;56.93;;;41.33;;
30462;SDS011;17256;43.618;25.336;2022-12-07T14:59:00;63.40;;;47.07;;
30462;SDS011;17256;43.618;25.336;2022-12-07T15:01:28;53.77;;;37.20;;
30462;SDS011;17256;43.618;25.336;2022-12-07T15:03:55;60.00;;;38.77;;
30462;SDS011;17256;43.618;25.336;2022-12-07T15:06:22;74.30;;;45.43;;
30462;SDS011;17256;43.618;25.336;2022-12-07T15:08:49;66.23;;;44.53;;
30462;SDS011;17256;43.618;25.336;2022-12-07T15:11:18;85.33;;;58.93;;
30462;SDS011;17256;43.618;25.336;2022-12-07T15:13:46;83.07;;;60.03;;
30462;SDS011;17256;43.618;25.336;2022-12-07T15:16:30;81.87;;;58.27;;
30462;SDS011;17256;43.618;25.336;2022-12-07T15:18:58;91.77;;;60.50;;
30462;SDS011;17256;43.618;25.336;2022-12-07T15:21:25;89.97;;;56.53;;
30462;SDS011;17256;43.618;25.336;2022-12-07T15:23:55;91.03;;;59.60;;
30462;SDS011;17256;43.618;25.336;2022-12-07T15:27:51;92.73;;;65.50;;
30462;SDS011;17256;43.618;25.336;2022-12-07T15:31:11;71.00;;;50.80;;
30462;SDS011;17256;43.618;25.336;2022-12-07T15:35:19;73.80;;;49.63;;
30462;SDS011;17256;43.618;25.336;2022-12-07T15:38:30;78.77;;;53.17;;
30462;SDS011;17256;43.618;25.336;2022-12-07T15:41:44;85.67;;;55.63;;
30462;SDS011;17256;43.618;25.336;2022-12-07T15:45:09;91.33;;;58.83;;
30462;SDS011;17256;43.618;25.336;2022-12-07T15:48:27;74.50;;;51.70;;
30462;SDS011;17256;43.618;25.336;2022-12-07T15:51:34;101.47;;;70.70;;
30462;SDS011;17256;43.618;25.336;2022-12-07T15:54:30;82.27;;;57.83;;
30462;SDS011;17256;43.618;25.336;2022-12-07T15:58:09;73.07;;;52.47;;
30462;SDS011;17256;43.618;25.336;2022-12-07T16:14:19;39.87;;;25.23;;
30462;SDS011;17256;43.618;25.336;2022-12-07T16:16:46;38.87;;;27.43;;
30462;SDS011;17256;43.618;25.336;2022-12-07T16:19:13;41.60;;;29.20;;
30462;SDS011;17256;43.618;25.336;2022-12-07T16:25:46;49.73;;;34.07;;
30462;SDS011;17256;43.618;25.336;2022-12-07T16:28:11;53.03;;;33.60;;
30462;SDS011;17256;43.618;25.336;2022-12-07T16:30:37;44.87;;;30.60;;
30462;SDS011;17256;43.618;25.336;2022-12-07T16:36:03;49.80;;;30.37;;
30462;SDS011;17256;43.618;25.336;2022-12-07T16:38:30;64.20;;;38.80;;
30462;SDS011;17256;43.618;25.336;2022-12-07T16:40:59;55.67;;;37.83;;
30462;SDS011;17256;43.618;25.336;2022-12-07T16:43:25;37.67;;;23.23;;
30462;SDS011;17256;43.618;25.336;2022-12-07T16:46:03;41.37;;;26.10;;
30462;SDS011;17256;43.618;25.336;2022-12-07T16:49:06;49.97;;;33.53;;
30462;SDS011;17256;43.618;25.336;2022-12-07T16:52:07;56.50;;;39.93;;
30462;SDS011;17256;43.618;25.336;2022-12-07T16:55:57;44.13;;;29.00;;
30462;SDS011;17256;43.618;25.336;2022-12-07T16:58:59;44.80;;;27.87;;
30462;SDS011;17256;43.618;25.336;2022-12-07T17:01:50;56.40;;;35.80;;
30462;SDS011;17256;43.618;25.336;2022-12-07T17:04:17;66.07;;;36.73;;
30462;SDS011;17256;43.618;25.336;2022-12-07T17:06:42;38.60;;;26.00;;
30462;SDS011;17256;43.618;25.336;2022-12-07T17:11:54;52.43;;;34.57;;
30462;SDS011;17256;43.618;25.336;2022-12-07T17:14:19;49.53;;;33.67;;
30462;SDS011;17256;43.618;25.336;2022-12-07T17:17:21;52.47;;;33.10;;
30462;SDS011;17256;43.618;25.336;2022-12-07T17:19:47;44.90;;;28.90;;
30462;SDS011;17256;43.618;25.336;2022-12-07T17:22:13;49.20;;;27.87;;
30462;SDS011;17256;43.618;25.336;2022-12-07T17:24:41;47.23;;;32.20;;
30462;SDS011;17256;43.618;25.336;2022-12-07T17:29:54;60.87;;;40.90;;
30462;SDS011;17256;43.618;25.336;2022-12-07T17:34:50;50.43;;;33.00;;
30462;SDS011;17256;43.618;25.336;2022-12-07T17:37:15;51.80;;;33.40;;
30462;SDS011;17256;43.618;25.336;2022-12-07T17:39:41;73.40;;;47.57;;
30462;SDS011;17256;43.618;25.336;2022-12-07T17:42:07;176.97;;;118.20;;
30462;SDS011;17256;43.618;25.336;2022-12-07T17:44:52;47.10;;;32.47;;
30462;SDS011;17256;43.618;25.336;2022-12-07T17:47:22;61.73;;;43.57;;
30462;SDS011;17256;43.618;25.336;2022-12-07T17:49:48;53.90;;;38.97;;
30462;SDS011;17256;43.618;25.336;2022-12-07T17:52:14;57.67;;;41.00;;
30462;SDS011;17256;43.618;25.336;2022-12-07T17:54:58;81.03;;;57.93;;
30462;SDS011;17256;43.618;25.336;2022-12-07T17:57:25;46.20;;;29.63;;
30462;SDS011;17256;43.618;25.336;2022-12-07T18:03:56;47.63;;;31.90;;
30462;SDS011;17256;43.618;25.336;2022-12-07T18:08:08;41.13;;;29.17;;
30462;SDS011;17256;43.618;25.336;2022-12-07T18:12:15;61.10;;;36.07;;
30462;SDS011;17256;43.618;25.336;2022-12-07T18:15:16;51.17;;;36.13;;
30462;SDS011;17256;43.618;25.336;2022-12-07T18:19:22;34.40;;;22.63;;
30462;SDS011;17256;43.618;25.336;2022-12-07T18:27:42;41.27;;;29.90;;
30462;SDS011;17256;43.618;25.336;2022-12-07T18:30:53;37.27;;;28.47;;
30462;SDS011;17256;43.618;25.336;2022-12-07T18:33:21;47.17;;;30.73;;
30462;SDS011;17256;43.618;25.336;2022-12-07T18:35:58;46.60;;;35.60;;
30462;SDS011;17256;43.618;25.336;2022-12-07T18:38:35;46.47;;;31.43;;
30462;SDS011;17256;43.618;25.336;2022-12-07T18:41:19;33.93;;;25.47;;
30462;SDS011;17256;43.618;25.336;2022-12-07T18:44:02;44.23;;;29.37;;
30462;SDS011;17256;43.618;25.336;2022-12-07T18:46:31;100.00;;;71.30;;
30462;SDS011;17256;43.618;25.336;2022-12-07T18:48:57;44.10;;;30.67;;
30462;SDS011;17256;43.618;25.336;2022-12-07T18:51:25;63.40;;;49.93;;
30462;SDS011;17256;43.618;25.336;2022-12-07T18:54:04;51.70;;;39.80;;
30462;SDS011;17256;43.618;25.336;2022-12-07T18:57:31;47.80;;;34.30;;
30462;SDS011;17256;43.618;25.336;2022-12-07T19:01:48;61.67;;;38.23;;
30462;SDS011;17256;43.618;25.336;2022-12-07T19:04:45;72.10;;;45.20;;
30462;SDS011;17256;43.618;25.336;2022-12-07T19:07:51;51.50;;;33.40;;
30462;SDS011;17256;43.618;25.336;2022-12-07T19:11:26;48.33;;;34.00;;
30462;SDS011;17256;43.618;25.336;2022-12-07T19:14:47;44.00;;;32.57;;
30462;SDS011;17256;43.618;25.336;2022-12-07T19:24:57;43.87;;;31.37;;
30462;SDS011;17256;43.618;25.336;2022-12-07T19:27:23;43.40;;;29.83;;
30462;SDS011;17256;43.618;25.336;2022-12-07T19:32:21;41.50;;;26.53;;
30462;SDS011;17256;43.618;25.336;2022-12-07T19:34:48;35.80;;;24.87;;
30462;SDS011;17256;43.618;25.336;2022-12-07T19:37:14;34.87;;;25.37;;
30462;SDS011;17256;43.618;25.336;2022-12-07T19:39:40;42.13;;;26.73;;
30462;SDS011;17256;43.618;25.336;2022-12-07T19:42:10;38.93;;;26.67;;
30462;SDS011;17256;43.618;25.336;2022-12-07T19:44:37;43.33;;;26.40;;
30462;SDS011;17256;43.618;25.336;2022-12-07T19:47:04;45.60;;;31.37;;
30462;SDS011;17256;43.618;25.336;2022-12-07T19:49:31;44.77;;;30.50;;
30462;SDS011;17256;43.618;25.336;2022-12-07T19:51:58;38.23;;;28.10;;
30462;SDS011;17256;43.618;25.336;2022-12-07T19:54:27;39.73;;;26.77;;
30462;SDS011;17256;43.618;25.336;2022-12-07T19:56:54;38.43;;;26.30;;
30462;SDS011;17256;43.618;25.336;2022-12-07T19:59:25;46.50;;;30.07;;
30462;SDS011;17256;43.618;25.336;2022-12-07T20:01:54;41.73;;;27.40;;
30462;SDS011;17256;43.618;25.336;2022-12-07T20:04:23;44.23;;;28.37;;
30462;SDS011;17256;43.618;25.336;2022-12-07T20:06:53;48.07;;;35.77;;
30462;SDS011;17256;43.618;25.336;2022-12-07T20:09:22;41.70;;;31.93;;
30462;SDS011;17256;43.618;25.336;2022-12-07T20:11:52;48.80;;;31.83;;
30462;SDS011;17256;43.618;25.336;2022-12-07T20:14:48;50.53;;;31.43;;
30462;SDS011;17256;43.618;25.336;2022-12-07T20:17:25;45.77;;;31.60;;
30462;SDS011;17256;43.618;25.336;2022-12-07T20:20:00;45.13;;;31.53;;
30462;SDS011;17256;43.618;25.336;2022-12-07T20:22:28;45.93;;;30.93;;
30462;SDS011;17256;43.618;25.336;2022-12-07T20:24:54;43.87;;;26.83;;
30462;SDS011;17256;43.618;25.336;2022-12-07T20:30:51;55.47;;;35.40;;
30462;SDS011;17256;43.618;25.336;2022-12-07T20:33:23;49.57;;;32.63;;
30462;SDS011;17256;43.618;25.336;2022-12-07T20:35:49;41.50;;;25.43;;
30462;SDS011;17256;43.618;25.336;2022-12-07T20:38:16;39.73;;;26.57;;
30462;SDS011;17256;43.618;25.336;2022-12-07T20:41:18;35.13;;;23.73;;
30462;SDS011;17256;43.618;25.336;2022-12-07T20:44:52;48.00;;;26.80;;
30462;SDS011;17256;43.618;25.336;2022-12-07T20:52:30;43.03;;;25.87;;
30462;SDS011;17256;43.618;25.336;2022-12-07T20:55:54;38.33;;;23.47;;
30462;SDS011;17256;43.618;25.336;2022-12-07T20:59:23;44.47;;;25.43;;
30462;SDS011;17256;43.618;25.336;2022-12-07T21:03:03;45.30;;;27.77;;
30462;SDS011;17256;43.618;25.336;2022-12-07T21:10:39;53.80;;;29.90;;
30462;SDS011;17256;43.618;25.336;2022-12-07T21:14:40;45.77;;;26.67;;
30462;SDS011;17256;43.618;25.336;2022-12-07T21:17:15;51.70;;;27.97;;
30462;SDS011;17256;43.618;25.336;2022-12-07T21:25:30;47.83;;;26.27;;
30462;SDS011;17256;43.618;25.336;2022-12-07T21:28:18;52.20;;;25.23;;
30462;SDS011;17256;43.618;25.336;2022-12-07T21:35:30;52.30;;;29.57;;
30462;SDS011;17256;43.618;25.336;2022-12-07T21:38:55;60.27;;;28.33;;
30462;SDS011;17256;43.618;25.336;2022-12-07T21:43:08;49.50;;;27.53;;
30462;SDS011;17256;43.618;25.336;2022-12-07T21:46:28;50.93;;;27.57;;
30462;SDS011;17256;43.618;25.336;2022-12-07T21:49:51;44.17;;;25.80;;
30462;SDS011;17256;43.618;25.336;2022-12-07T21:57:57;50.23;;;25.67;;
30462;SDS011;17256;43.618;25.336;2022-12-07T22:01:38;42.30;;;24.43;;
30462;SDS011;17256;43.618;25.336;2022-12-07T22:04:06;44.03;;;24.50;;
30462;SDS011;17256;43.618;25.336;2022-12-07T22:06:36;43.67;;;25.20;;
30462;SDS011;17256;43.618;25.336;2022-12-07T22:09:08;46.43;;;28.00;;
30462;SDS011;17256;43.618;25.336;2022-12-07T22:17:03;48.23;;;27.37;;
30462;SDS011;17256;43.618;25.336;2022-12-07T22:20:45;55.20;;;31.00;;
30462;SDS011;17256;43.618;25.336;2022-12-07T22:28:54;75.00;;;31.60;;
30462;SDS011;17256;43.618;25.336;2022-12-07T22:32:01;88.13;;;33.33;;
30462;SDS011;17256;43.618;25.336;2022-12-07T22:35:41;122.90;;;37.97;;
30462;SDS011;17256;43.618;25.336;2022-12-07T22:38:35;151.60;;;43.00;;
30462;SDS011;17256;43.618;25.336;2022-12-07T22:48:54;188.87;;;38.87;;
30462;SDS011;17256;43.618;25.336;2022-12-07T22:51:28;166.07;;;37.33;;
30462;SDS011;17256;43.618;25.336;2022-12-07T23:01:44;123.97;;;40.47;;
30462;SDS011;17256;43.618;25.336;2022-12-07T23:04:22;118.27;;;40.50;;
30462;SDS011;17256;43.618;25.336;2022-12-07T23:07:07;85.50;;;34.40;;
30462;SDS011;17256;43.618;25.336;2022-12-07T23:11:00;82.70;;;33.30;;
30462;SDS011;17256;43.618;25.336;2022-12-07T23:14:39;76.93;;;31.23;;
30462;SDS011;17256;43.618;25.336;2022-12-07T23:34:16;76.93;;;35.30;;
30462;SDS011;17256;43.618;25.336;2022-12-07T23:37:39;72.67;;;38.13;;
30462;SDS011;17256;43.618;25.336;2022-12-07T23:40:55;76.00;;;35.13;;
30462;SDS011;17256;43.618;25.336;2022-12-07T23:43:54;73.03;;;35.13;;
30462;SDS011;17256;43.618;25.336;2022-12-07T23:46:45;76.70;;;34.00;;
30462;SDS011;17256;43.618;25.336;2022-12-07T23:49:27;67.17;;;34.10;;
30462;SDS011;17256;43.618;25.336;2022-12-07T23:55:49;68.37;;;31.97;;
30462;SDS011;17256;43.618;25.336;2022-12-07T23:58:49;57.00;;;25.77;;
